sensor_id;sensor_type;location;lat;lon;timestamp;P1;durP1;ratioP1;P2;durP2;ratioP2
73841;SDS011;62184;52.006;5.924;2022-11-20T00:00:55;24.30;;;12.67;;
73841;SDS011;62184;52.006;5.924;2022-11-20T00:03:21;23.50;;;12.70;;
73841;SDS011;62184;52.006;5.924;2022-11-20T00:05:48;23.52;;;12.55;;
73841;SDS011;62184;52.006;5.924;2022-11-20T00:08:14;22.17;;;12.15;;
73841;SDS011;62184;52.006;5.924;2022-11-20T00:10:41;22.37;;;12.17;;
73841;SDS011;62184;52.006;5.924;2022-11-20T00:13:10;22.37;;;12.23;;
73841;SDS011;62184;52.006;5.924;2022-11-20T00:15:36;23.30;;;12.93;;
73841;SDS011;62184;52.006;5.924;2022-11-20T00:18:02;23.85;;;13.18;;
73841;SDS011;62184;52.006;5.924;2022-11-20T00:20:29;22.10;;;12.77;;
73841;SDS011;62184;52.006;5.924;2022-11-20T00:22:55;23.00;;;12.02;;
73841;SDS011;62184;52.006;5.924;2022-11-20T00:25:22;25.80;;;13.07;;
73841;SDS011;62184;52.006;5.924;2022-11-20T00:27:48;23.93;;;12.47;;
73841;SDS011;62184;52.006;5.924;2022-11-20T00:30:17;20.77;;;11.73;;
73841;SDS011;62184;52.006;5.924;2022-11-20T00:32:44;22.10;;;11.73;;
73841;SDS011;62184;52.006;5.924;2022-11-20T00:35:10;22.63;;;13.30;;
73841;SDS011;62184;52.006;5.924;2022-11-20T00:37:37;19.73;;;11.68;;
73841;SDS011;62184;52.006;5.924;2022-11-20T00:40:04;20.25;;;11.95;;
73841;SDS011;62184;52.006;5.924;2022-11-20T00:42:32;23.07;;;12.63;;
73841;SDS011;62184;52.006;5.924;2022-11-20T00:44:58;22.02;;;11.80;;
73841;SDS011;62184;52.006;5.924;2022-11-20T00:47:27;24.08;;;12.63;;
73841;SDS011;62184;52.006;5.924;2022-11-20T00:49:54;26.17;;;13.60;;
73841;SDS011;62184;52.006;5.924;2022-11-20T00:52:20;23.10;;;12.93;;
73841;SDS011;62184;52.006;5.924;2022-11-20T00:54:47;24.73;;;12.87;;
73841;SDS011;62184;52.006;5.924;2022-11-20T00:57:13;21.70;;;12.45;;
73841;SDS011;62184;52.006;5.924;2022-11-20T00:59:39;19.52;;;11.35;;
73841;SDS011;62184;52.006;5.924;2022-11-20T01:02:06;20.08;;;11.70;;
73841;SDS011;62184;52.006;5.924;2022-11-20T01:04:35;20.58;;;11.65;;
73841;SDS011;62184;52.006;5.924;2022-11-20T01:07:01;20.43;;;12.07;;
73841;SDS011;62184;52.006;5.924;2022-11-20T01:09:27;21.83;;;12.25;;
73841;SDS011;62184;52.006;5.924;2022-11-20T01:11:54;24.83;;;12.77;;
73841;SDS011;62184;52.006;5.924;2022-11-20T01:14:20;22.95;;;12.10;;
73841;SDS011;62184;52.006;5.924;2022-11-20T01:16:47;24.45;;;12.75;;
73841;SDS011;62184;52.006;5.924;2022-11-20T01:19:16;25.37;;;12.90;;
73841;SDS011;62184;52.006;5.924;2022-11-20T01:21:48;25.45;;;13.20;;
73841;SDS011;62184;52.006;5.924;2022-11-20T01:24:17;22.80;;;12.95;;
73841;SDS011;62184;52.006;5.924;2022-11-20T01:26:47;20.77;;;11.90;;
73841;SDS011;62184;52.006;5.924;2022-11-20T01:29:16;21.30;;;12.55;;
73841;SDS011;62184;52.006;5.924;2022-11-20T01:31:45;18.90;;;11.23;;
73841;SDS011;62184;52.006;5.924;2022-11-20T01:34:12;20.17;;;11.23;;
73841;SDS011;62184;52.006;5.924;2022-11-20T01:36:42;19.05;;;10.90;;
73841;SDS011;62184;52.006;5.924;2022-11-20T01:39:13;22.42;;;11.80;;
73841;SDS011;62184;52.006;5.924;2022-11-20T01:41:42;19.38;;;10.43;;
73841;SDS011;62184;52.006;5.924;2022-11-20T01:44:10;21.58;;;11.25;;
73841;SDS011;62184;52.006;5.924;2022-11-20T01:46:42;21.57;;;11.60;;
73841;SDS011;62184;52.006;5.924;2022-11-20T01:49:24;23.05;;;11.95;;
73841;SDS011;62184;52.006;5.924;2022-11-20T01:51:59;21.58;;;11.30;;
73841;SDS011;62184;52.006;5.924;2022-11-20T01:54:34;24.90;;;11.80;;
73841;SDS011;62184;52.006;5.924;2022-11-20T01:57:08;24.52;;;12.45;;
73841;SDS011;62184;52.006;5.924;2022-11-20T01:59:38;22.73;;;11.85;;
73841;SDS011;62184;52.006;5.924;2022-11-20T02:02:17;22.40;;;11.48;;
73841;SDS011;62184;52.006;5.924;2022-11-20T02:04:43;25.02;;;12.07;;
73841;SDS011;62184;52.006;5.924;2022-11-20T02:07:10;26.55;;;13.05;;
73841;SDS011;62184;52.006;5.924;2022-11-20T02:09:40;24.25;;;12.98;;
73841;SDS011;62184;52.006;5.924;2022-11-20T02:12:07;23.27;;;12.43;;
73841;SDS011;62184;52.006;5.924;2022-11-20T02:14:33;25.92;;;13.10;;
73841;SDS011;62184;52.006;5.924;2022-11-20T02:17:00;26.02;;;12.63;;
73841;SDS011;62184;52.006;5.924;2022-11-20T02:19:27;26.67;;;13.23;;
73841;SDS011;62184;52.006;5.924;2022-11-20T02:21:59;25.48;;;13.18;;
73841;SDS011;62184;52.006;5.924;2022-11-20T02:24:35;23.55;;;12.43;;
73841;SDS011;62184;52.006;5.924;2022-11-20T02:27:03;26.33;;;13.23;;
73841;SDS011;62184;52.006;5.924;2022-11-20T02:29:35;26.50;;;13.80;;
73841;SDS011;62184;52.006;5.924;2022-11-20T02:32:06;23.85;;;13.55;;
73841;SDS011;62184;52.006;5.924;2022-11-20T02:34:44;23.35;;;12.77;;
73841;SDS011;62184;52.006;5.924;2022-11-20T02:37:11;25.13;;;12.80;;
73841;SDS011;62184;52.006;5.924;2022-11-20T02:39:41;23.17;;;12.65;;
73841;SDS011;62184;52.006;5.924;2022-11-20T02:42:09;24.10;;;13.13;;
73841;SDS011;62184;52.006;5.924;2022-11-20T02:44:35;23.35;;;12.85;;
73841;SDS011;62184;52.006;5.924;2022-11-20T02:47:02;23.75;;;13.65;;
73841;SDS011;62184;52.006;5.924;2022-11-20T02:49:29;25.40;;;14.07;;
73841;SDS011;62184;52.006;5.924;2022-11-20T02:51:55;23.75;;;13.32;;
73841;SDS011;62184;52.006;5.924;2022-11-20T02:54:21;23.38;;;12.80;;
73841;SDS011;62184;52.006;5.924;2022-11-20T02:56:51;23.77;;;12.32;;
73841;SDS011;62184;52.006;5.924;2022-11-20T02:59:18;22.00;;;12.73;;
73841;SDS011;62184;52.006;5.924;2022-11-20T03:01:44;22.47;;;13.37;;
73841;SDS011;62184;52.006;5.924;2022-11-20T03:04:11;21.20;;;11.33;;
73841;SDS011;62184;52.006;5.924;2022-11-20T03:06:37;19.80;;;11.60;;
73841;SDS011;62184;52.006;5.924;2022-11-20T03:09:04;21.10;;;11.95;;
73841;SDS011;62184;52.006;5.924;2022-11-20T03:11:30;19.42;;;11.23;;
73841;SDS011;62184;52.006;5.924;2022-11-20T03:13:59;20.55;;;12.02;;
73841;SDS011;62184;52.006;5.924;2022-11-20T03:16:28;21.60;;;12.07;;
73841;SDS011;62184;52.006;5.924;2022-11-20T03:18:54;21.67;;;12.02;;
73841;SDS011;62184;52.006;5.924;2022-11-20T03:21:20;22.87;;;12.17;;
73841;SDS011;62184;52.006;5.924;2022-11-20T03:23:47;21.73;;;11.43;;
73841;SDS011;62184;52.006;5.924;2022-11-20T03:26:14;24.77;;;12.83;;
73841;SDS011;62184;52.006;5.924;2022-11-20T03:28:46;24.83;;;12.93;;
73841;SDS011;62184;52.006;5.924;2022-11-20T03:31:17;24.65;;;13.05;;
73841;SDS011;62184;52.006;5.924;2022-11-20T03:33:46;27.43;;;14.00;;
73841;SDS011;62184;52.006;5.924;2022-11-20T03:36:14;28.08;;;13.80;;
73841;SDS011;62184;52.006;5.924;2022-11-20T03:38:43;27.67;;;14.13;;
73841;SDS011;62184;52.006;5.924;2022-11-20T03:41:11;27.55;;;14.32;;
73841;SDS011;62184;52.006;5.924;2022-11-20T03:43:40;30.50;;;14.73;;
73841;SDS011;62184;52.006;5.924;2022-11-20T03:46:07;30.92;;;15.57;;
73841;SDS011;62184;52.006;5.924;2022-11-20T03:48:36;34.42;;;17.45;;
73841;SDS011;62184;52.006;5.924;2022-11-20T03:51:06;34.05;;;17.67;;
73841;SDS011;62184;52.006;5.924;2022-11-20T03:53:34;31.67;;;16.33;;
73841;SDS011;62184;52.006;5.924;2022-11-20T03:56:01;33.57;;;16.73;;
73841;SDS011;62184;52.006;5.924;2022-11-20T03:58:27;33.35;;;16.92;;
73841;SDS011;62184;52.006;5.924;2022-11-20T04:00:54;27.67;;;15.30;;
73841;SDS011;62184;52.006;5.924;2022-11-20T04:03:20;29.02;;;15.68;;
73841;SDS011;62184;52.006;5.924;2022-11-20T04:05:49;29.15;;;15.40;;
73841;SDS011;62184;52.006;5.924;2022-11-20T04:08:16;29.93;;;16.57;;
73841;SDS011;62184;52.006;5.924;2022-11-20T04:10:42;28.43;;;15.70;;
73841;SDS011;62184;52.006;5.924;2022-11-20T04:13:08;34.47;;;16.38;;
73841;SDS011;62184;52.006;5.924;2022-11-20T04:15:35;33.25;;;16.80;;
73841;SDS011;62184;52.006;5.924;2022-11-20T04:18:01;32.38;;;15.93;;
73841;SDS011;62184;52.006;5.924;2022-11-20T04:20:28;34.55;;;16.60;;
73841;SDS011;62184;52.006;5.924;2022-11-20T04:22:56;34.50;;;16.27;;
73841;SDS011;62184;52.006;5.924;2022-11-20T04:25:23;29.98;;;15.57;;
73841;SDS011;62184;52.006;5.924;2022-11-20T04:27:49;30.77;;;16.33;;
73841;SDS011;62184;52.006;5.924;2022-11-20T04:30:16;31.23;;;16.67;;
73841;SDS011;62184;52.006;5.924;2022-11-20T04:32:42;30.33;;;14.88;;
73841;SDS011;62184;52.006;5.924;2022-11-20T04:35:09;32.47;;;16.00;;
73841;SDS011;62184;52.006;5.924;2022-11-20T04:37:35;31.58;;;16.08;;
73841;SDS011;62184;52.006;5.924;2022-11-20T04:40:04;33.65;;;16.65;;
73841;SDS011;62184;52.006;5.924;2022-11-20T04:42:32;36.72;;;17.33;;
73841;SDS011;62184;52.006;5.924;2022-11-20T04:44:58;38.87;;;18.07;;
73841;SDS011;62184;52.006;5.924;2022-11-20T04:47:25;35.53;;;17.27;;
73841;SDS011;62184;52.006;5.924;2022-11-20T04:49:51;35.80;;;18.00;;
73841;SDS011;62184;52.006;5.924;2022-11-20T04:52:17;33.97;;;17.23;;
73841;SDS011;62184;52.006;5.924;2022-11-20T04:54:44;35.17;;;16.87;;
73841;SDS011;62184;52.006;5.924;2022-11-20T04:57:15;31.33;;;15.03;;
73841;SDS011;62184;52.006;5.924;2022-11-20T04:59:41;33.83;;;16.65;;
73841;SDS011;62184;52.006;5.924;2022-11-20T05:02:07;35.38;;;17.40;;
73841;SDS011;62184;52.006;5.924;2022-11-20T05:04:34;35.07;;;17.00;;
73841;SDS011;62184;52.006;5.924;2022-11-20T05:07:01;35.15;;;17.10;;
73841;SDS011;62184;52.006;5.924;2022-11-20T05:09:27;32.35;;;17.40;;
73841;SDS011;62184;52.006;5.924;2022-11-20T05:11:53;31.35;;;17.02;;
73841;SDS011;62184;52.006;5.924;2022-11-20T05:14:22;34.58;;;16.13;;
73841;SDS011;62184;52.006;5.924;2022-11-20T05:16:49;32.23;;;16.27;;
73841;SDS011;62184;52.006;5.924;2022-11-20T05:19:15;32.63;;;16.63;;
73841;SDS011;62184;52.006;5.924;2022-11-20T05:21:41;33.20;;;16.63;;
73841;SDS011;62184;52.006;5.924;2022-11-20T05:24:08;30.65;;;16.08;;
73841;SDS011;62184;52.006;5.924;2022-11-20T05:26:35;31.83;;;16.10;;
73841;SDS011;62184;52.006;5.924;2022-11-20T05:29:01;33.63;;;17.13;;
73841;SDS011;62184;52.006;5.924;2022-11-20T05:31:30;32.53;;;16.77;;
73841;SDS011;62184;52.006;5.924;2022-11-20T05:33:57;35.60;;;17.35;;
73841;SDS011;62184;52.006;5.924;2022-11-20T05:36:23;35.58;;;16.92;;
73841;SDS011;62184;52.006;5.924;2022-11-20T05:38:50;34.23;;;17.23;;
73841;SDS011;62184;52.006;5.924;2022-11-20T05:41:18;34.67;;;17.27;;
73841;SDS011;62184;52.006;5.924;2022-11-20T05:43:46;39.15;;;17.60;;
73841;SDS011;62184;52.006;5.924;2022-11-20T05:46:16;37.50;;;17.77;;
73841;SDS011;62184;52.006;5.924;2022-11-20T05:48:47;37.45;;;17.45;;
73841;SDS011;62184;52.006;5.924;2022-11-20T05:51:15;33.10;;;16.73;;
73841;SDS011;62184;52.006;5.924;2022-11-20T05:53:45;37.78;;;17.42;;
73841;SDS011;62184;52.006;5.924;2022-11-20T05:56:13;37.25;;;18.20;;
73841;SDS011;62184;52.006;5.924;2022-11-20T05:58:42;38.73;;;18.10;;
73841;SDS011;62184;52.006;5.924;2022-11-20T06:01:10;36.10;;;17.10;;
73841;SDS011;62184;52.006;5.924;2022-11-20T06:03:42;34.83;;;18.25;;
73841;SDS011;62184;52.006;5.924;2022-11-20T06:06:12;33.30;;;16.67;;
73841;SDS011;62184;52.006;5.924;2022-11-20T06:08:39;33.88;;;16.70;;
73841;SDS011;62184;52.006;5.924;2022-11-20T06:11:07;35.10;;;17.70;;
73841;SDS011;62184;52.006;5.924;2022-11-20T06:13:36;37.88;;;18.70;;
73841;SDS011;62184;52.006;5.924;2022-11-20T06:16:03;44.65;;;18.58;;
73841;SDS011;62184;52.006;5.924;2022-11-20T06:18:31;42.55;;;18.95;;
73841;SDS011;62184;52.006;5.924;2022-11-20T06:21:01;44.38;;;19.08;;
73841;SDS011;62184;52.006;5.924;2022-11-20T06:23:32;47.28;;;20.05;;
73841;SDS011;62184;52.006;5.924;2022-11-20T06:26:01;40.00;;;17.90;;
73841;SDS011;62184;52.006;5.924;2022-11-20T06:28:29;40.47;;;18.25;;
73841;SDS011;62184;52.006;5.924;2022-11-20T06:30:55;37.63;;;17.45;;
73841;SDS011;62184;52.006;5.924;2022-11-20T06:33:22;40.85;;;18.70;;
73841;SDS011;62184;52.006;5.924;2022-11-20T06:35:48;42.10;;;18.10;;
73841;SDS011;62184;52.006;5.924;2022-11-20T06:38:15;40.93;;;19.03;;
73841;SDS011;62184;52.006;5.924;2022-11-20T06:40:44;45.97;;;19.97;;
73841;SDS011;62184;52.006;5.924;2022-11-20T06:43:11;43.85;;;19.33;;
73841;SDS011;62184;52.006;5.924;2022-11-20T06:45:37;49.53;;;21.52;;
73841;SDS011;62184;52.006;5.924;2022-11-20T06:48:04;45.03;;;19.77;;
73841;SDS011;62184;52.006;5.924;2022-11-20T06:50:31;44.87;;;19.27;;
73841;SDS011;62184;52.006;5.924;2022-11-20T06:52:59;49.70;;;21.00;;
73841;SDS011;62184;52.006;5.924;2022-11-20T06:55:27;49.37;;;20.90;;
73841;SDS011;62184;52.006;5.924;2022-11-20T06:57:56;45.37;;;20.70;;
73841;SDS011;62184;52.006;5.924;2022-11-20T07:00:23;40.03;;;18.63;;
73841;SDS011;62184;52.006;5.924;2022-11-20T07:02:49;43.20;;;19.40;;
73841;SDS011;62184;52.006;5.924;2022-11-20T07:05:16;44.00;;;20.67;;
73841;SDS011;62184;52.006;5.924;2022-11-20T07:07:43;47.70;;;21.75;;
73841;SDS011;62184;52.006;5.924;2022-11-20T07:10:10;47.95;;;21.55;;
73841;SDS011;62184;52.006;5.924;2022-11-20T07:12:37;48.70;;;21.48;;
73841;SDS011;62184;52.006;5.924;2022-11-20T07:15:06;50.47;;;22.15;;
73841;SDS011;62184;52.006;5.924;2022-11-20T07:17:34;47.25;;;20.33;;
73841;SDS011;62184;52.006;5.924;2022-11-20T07:20:00;47.10;;;21.53;;
73841;SDS011;62184;52.006;5.924;2022-11-20T07:22:26;49.33;;;22.00;;
73841;SDS011;62184;52.006;5.924;2022-11-20T07:24:53;46.33;;;22.15;;
73841;SDS011;62184;52.006;5.924;2022-11-20T07:27:19;44.75;;;21.27;;
73841;SDS011;62184;52.006;5.924;2022-11-20T07:29:45;45.75;;;20.92;;
73841;SDS011;62184;52.006;5.924;2022-11-20T07:32:14;49.70;;;21.88;;
73841;SDS011;62184;52.006;5.924;2022-11-20T07:34:41;45.40;;;20.33;;
73841;SDS011;62184;52.006;5.924;2022-11-20T07:37:07;44.15;;;20.52;;
73841;SDS011;62184;52.006;5.924;2022-11-20T07:39:34;37.38;;;19.25;;
73841;SDS011;62184;52.006;5.924;2022-11-20T07:42:00;40.08;;;19.40;;
73841;SDS011;62184;52.006;5.924;2022-11-20T07:44:26;44.92;;;19.92;;
73841;SDS011;62184;52.006;5.924;2022-11-20T07:46:53;52.65;;;21.98;;
73841;SDS011;62184;52.006;5.924;2022-11-20T07:49:22;51.42;;;22.10;;
73841;SDS011;62184;52.006;5.924;2022-11-20T07:51:49;43.65;;;21.23;;
73841;SDS011;62184;52.006;5.924;2022-11-20T07:54:16;47.47;;;21.55;;
73841;SDS011;62184;52.006;5.924;2022-11-20T07:56:43;46.08;;;21.98;;
73841;SDS011;62184;52.006;5.924;2022-11-20T07:59:09;47.30;;;21.35;;
73841;SDS011;62184;52.006;5.924;2022-11-20T08:01:35;42.67;;;21.53;;
73841;SDS011;62184;52.006;5.924;2022-11-20T08:04:02;41.95;;;20.83;;
73841;SDS011;62184;52.006;5.924;2022-11-20T08:06:31;42.70;;;21.38;;
73841;SDS011;62184;52.006;5.924;2022-11-20T08:08:58;46.58;;;22.10;;
73841;SDS011;62184;52.006;5.924;2022-11-20T08:11:24;46.73;;;22.40;;
73841;SDS011;62184;52.006;5.924;2022-11-20T08:13:51;42.93;;;21.70;;
73841;SDS011;62184;52.006;5.924;2022-11-20T08:16:17;45.22;;;22.17;;
73841;SDS011;62184;52.006;5.924;2022-11-20T08:18:44;42.67;;;22.17;;
73841;SDS011;62184;52.006;5.924;2022-11-20T08:21:10;44.38;;;22.83;;
73841;SDS011;62184;52.006;5.924;2022-11-20T08:23:39;43.97;;;23.02;;
73841;SDS011;62184;52.006;5.924;2022-11-20T08:26:05;41.43;;;23.07;;
73841;SDS011;62184;52.006;5.924;2022-11-20T08:28:32;40.70;;;22.75;;
73841;SDS011;62184;52.006;5.924;2022-11-20T08:30:58;39.83;;;21.95;;
73841;SDS011;62184;52.006;5.924;2022-11-20T08:33:28;40.40;;;21.70;;
73841;SDS011;62184;52.006;5.924;2022-11-20T08:35:58;38.25;;;21.45;;
73841;SDS011;62184;52.006;5.924;2022-11-20T08:38:25;36.60;;;21.90;;
73841;SDS011;62184;52.006;5.924;2022-11-20T08:40:54;35.28;;;21.45;;
73841;SDS011;62184;52.006;5.924;2022-11-20T08:43:23;34.58;;;20.95;;
73841;SDS011;62184;52.006;5.924;2022-11-20T08:45:49;35.05;;;21.20;;
73841;SDS011;62184;52.006;5.924;2022-11-20T08:48:15;34.65;;;20.27;;
73841;SDS011;62184;52.006;5.924;2022-11-20T08:50:42;35.20;;;21.00;;
73841;SDS011;62184;52.006;5.924;2022-11-20T08:53:08;35.10;;;21.15;;
73841;SDS011;62184;52.006;5.924;2022-11-20T08:55:35;34.38;;;20.83;;
73841;SDS011;62184;52.006;5.924;2022-11-20T08:58:05;36.47;;;21.33;;
73841;SDS011;62184;52.006;5.924;2022-11-20T09:00:32;34.87;;;22.47;;
73841;SDS011;62184;52.006;5.924;2022-11-20T09:03:00;34.30;;;22.30;;
73841;SDS011;62184;52.006;5.924;2022-11-20T09:05:27;32.40;;;20.90;;
73841;SDS011;62184;52.006;5.924;2022-11-20T09:07:55;32.17;;;20.27;;
73841;SDS011;62184;52.006;5.924;2022-11-20T09:10:22;31.63;;;20.08;;
73841;SDS011;62184;52.006;5.924;2022-11-20T09:12:48;34.58;;;20.52;;
73841;SDS011;62184;52.006;5.924;2022-11-20T09:15:17;35.70;;;20.58;;
73841;SDS011;62184;52.006;5.924;2022-11-20T09:17:49;34.97;;;20.83;;
73841;SDS011;62184;52.006;5.924;2022-11-20T09:20:16;36.40;;;22.08;;
73841;SDS011;62184;52.006;5.924;2022-11-20T09:22:43;35.97;;;21.55;;
73841;SDS011;62184;52.006;5.924;2022-11-20T09:25:09;34.47;;;21.25;;
73841;SDS011;62184;52.006;5.924;2022-11-20T09:27:36;33.72;;;20.88;;
73841;SDS011;62184;52.006;5.924;2022-11-20T09:30:03;34.97;;;21.67;;
73841;SDS011;62184;52.006;5.924;2022-11-20T09:32:33;34.23;;;21.03;;
73841;SDS011;62184;52.006;5.924;2022-11-20T09:34:59;31.60;;;19.25;;
73841;SDS011;62184;52.006;5.924;2022-11-20T09:37:26;32.67;;;19.98;;
73841;SDS011;62184;52.006;5.924;2022-11-20T09:39:52;33.00;;;21.15;;
73841;SDS011;62184;52.006;5.924;2022-11-20T09:42:27;31.63;;;19.17;;
73841;SDS011;62184;52.006;5.924;2022-11-20T09:45:11;30.15;;;19.73;;
73841;SDS011;62184;52.006;5.924;2022-11-20T09:48:01;31.23;;;18.97;;
73841;SDS011;62184;52.006;5.924;2022-11-20T09:51:02;31.52;;;19.38;;
73841;SDS011;62184;52.006;5.924;2022-11-20T09:53:46;31.45;;;20.02;;
73841;SDS011;62184;52.006;5.924;2022-11-20T09:56:30;30.00;;;19.77;;
73841;SDS011;62184;52.006;5.924;2022-11-20T09:58:59;30.73;;;20.17;;
73841;SDS011;62184;52.006;5.924;2022-11-20T10:01:33;31.73;;;19.88;;
73841;SDS011;62184;52.006;5.924;2022-11-20T10:04:09;32.40;;;21.30;;
73841;SDS011;62184;52.006;5.924;2022-11-20T10:06:43;31.60;;;21.15;;
73841;SDS011;62184;52.006;5.924;2022-11-20T10:09:20;33.03;;;21.60;;
73841;SDS011;62184;52.006;5.924;2022-11-20T10:11:59;32.78;;;21.40;;
73841;SDS011;62184;52.006;5.924;2022-11-20T10:14:48;32.05;;;21.10;;
73841;SDS011;62184;52.006;5.924;2022-11-20T10:17:41;31.63;;;20.83;;
73841;SDS011;62184;52.006;5.924;2022-11-20T10:20:46;32.10;;;21.97;;
73841;SDS011;62184;52.006;5.924;2022-11-20T10:23:43;32.55;;;21.60;;
73841;SDS011;62184;52.006;5.924;2022-11-20T10:26:38;32.05;;;21.38;;
73841;SDS011;62184;52.006;5.924;2022-11-20T10:29:21;31.10;;;20.73;;
73841;SDS011;62184;52.006;5.924;2022-11-20T10:32:00;31.80;;;20.15;;
73841;SDS011;62184;52.006;5.924;2022-11-20T10:34:31;30.20;;;19.70;;
73841;SDS011;62184;52.006;5.924;2022-11-20T10:37:14;32.20;;;20.58;;
73841;SDS011;62184;52.006;5.924;2022-11-20T10:39:49;32.25;;;19.83;;
73841;SDS011;62184;52.006;5.924;2022-11-20T10:42:26;33.45;;;20.67;;
73841;SDS011;62184;52.006;5.924;2022-11-20T10:45:02;34.40;;;21.58;;
73841;SDS011;62184;52.006;5.924;2022-11-20T10:48:00;33.17;;;20.60;;
73841;SDS011;62184;52.006;5.924;2022-11-20T10:50:42;33.53;;;20.40;;
73841;SDS011;62184;52.006;5.924;2022-11-20T10:53:33;32.55;;;20.90;;
73841;SDS011;62184;52.006;5.924;2022-11-20T10:56:16;33.30;;;20.98;;
73841;SDS011;62184;52.006;5.924;2022-11-20T10:58:52;32.88;;;20.92;;
73841;SDS011;62184;52.006;5.924;2022-11-20T11:01:39;32.13;;;20.67;;
73841;SDS011;62184;52.006;5.924;2022-11-20T11:04:07;32.65;;;21.25;;
73841;SDS011;62184;52.006;5.924;2022-11-20T11:06:56;32.35;;;21.50;;
73841;SDS011;62184;52.006;5.924;2022-11-20T11:09:38;32.97;;;20.93;;
73841;SDS011;62184;52.006;5.924;2022-11-20T11:12:09;32.75;;;21.25;;
73841;SDS011;62184;52.006;5.924;2022-11-20T11:14:47;36.15;;;21.60;;
73841;SDS011;62184;52.006;5.924;2022-11-20T11:17:20;33.38;;;21.70;;
73841;SDS011;62184;52.006;5.924;2022-11-20T11:19:59;35.28;;;21.98;;
73841;SDS011;62184;52.006;5.924;2022-11-20T11:22:42;34.35;;;21.92;;
73841;SDS011;62184;52.006;5.924;2022-11-20T11:25:22;30.63;;;20.63;;
73841;SDS011;62184;52.006;5.924;2022-11-20T11:27:56;33.03;;;21.55;;
73841;SDS011;62184;52.006;5.924;2022-11-20T11:30:26;32.00;;;20.67;;
73841;SDS011;62184;52.006;5.924;2022-11-20T11:33:04;30.87;;;20.87;;
73841;SDS011;62184;52.006;5.924;2022-11-20T11:35:38;31.23;;;21.20;;
73841;SDS011;62184;52.006;5.924;2022-11-20T11:38:11;30.13;;;20.00;;
73841;SDS011;62184;52.006;5.924;2022-11-20T11:40:48;32.10;;;20.73;;
73841;SDS011;62184;52.006;5.924;2022-11-20T11:43:17;33.80;;;21.93;;
73841;SDS011;62184;52.006;5.924;2022-11-20T11:45:51;30.33;;;20.70;;
73841;SDS011;62184;52.006;5.924;2022-11-20T11:48:20;31.67;;;20.95;;
73841;SDS011;62184;52.006;5.924;2022-11-20T11:50:48;28.73;;;19.60;;
73841;SDS011;62184;52.006;5.924;2022-11-20T11:53:16;28.40;;;19.63;;
73841;SDS011;62184;52.006;5.924;2022-11-20T11:55:49;31.25;;;20.08;;
73841;SDS011;62184;52.006;5.924;2022-11-20T11:58:30;29.55;;;20.25;;
73841;SDS011;62184;52.006;5.924;2022-11-20T12:01:12;31.60;;;21.13;;
73841;SDS011;62184;52.006;5.924;2022-11-20T12:03:55;32.08;;;20.88;;
73841;SDS011;62184;52.006;5.924;2022-11-20T12:06:32;32.88;;;22.60;;
73841;SDS011;62184;52.006;5.924;2022-11-20T12:09:05;34.97;;;23.38;;
73841;SDS011;62184;52.006;5.924;2022-11-20T12:11:42;34.05;;;23.83;;
73841;SDS011;62184;52.006;5.924;2022-11-20T12:14:16;35.17;;;23.67;;
73841;SDS011;62184;52.006;5.924;2022-11-20T12:16:48;32.90;;;23.30;;
73841;SDS011;62184;52.006;5.924;2022-11-20T12:19:14;33.15;;;22.70;;
73841;SDS011;62184;52.006;5.924;2022-11-20T12:21:43;34.47;;;23.13;;
73841;SDS011;62184;52.006;5.924;2022-11-20T12:24:36;33.55;;;22.98;;
73841;SDS011;62184;52.006;5.924;2022-11-20T12:27:27;35.72;;;24.55;;
73841;SDS011;62184;52.006;5.924;2022-11-20T12:30:10;34.43;;;23.80;;
73841;SDS011;62184;52.006;5.924;2022-11-20T12:35:42;37.28;;;24.50;;
73841;SDS011;62184;52.006;5.924;2022-11-20T12:38:35;35.33;;;23.67;;
73841;SDS011;62184;52.006;5.924;2022-11-20T12:41:55;38.33;;;25.70;;
73841;SDS011;62184;52.006;5.924;2022-11-20T12:45:10;38.95;;;24.83;;
73841;SDS011;62184;52.006;5.924;2022-11-20T12:48:12;38.20;;;25.23;;
73841;SDS011;62184;52.006;5.924;2022-11-20T12:51:20;35.10;;;24.50;;
73841;SDS011;62184;52.006;5.924;2022-11-20T12:54:07;35.15;;;24.70;;
73841;SDS011;62184;52.006;5.924;2022-11-20T12:56:59;34.13;;;23.55;;
73841;SDS011;62184;52.006;5.924;2022-11-20T12:59:44;32.55;;;22.90;;
73841;SDS011;62184;52.006;5.924;2022-11-20T13:02:27;33.45;;;23.42;;
73841;SDS011;62184;52.006;5.924;2022-11-20T13:05:13;33.95;;;23.13;;
73841;SDS011;62184;52.006;5.924;2022-11-20T13:07:53;33.13;;;21.98;;
73841;SDS011;62184;52.006;5.924;2022-11-20T13:10:21;33.10;;;22.17;;
73841;SDS011;62184;52.006;5.924;2022-11-20T13:13:03;34.08;;;22.98;;
73841;SDS011;62184;52.006;5.924;2022-11-20T13:15:47;34.00;;;22.92;;
73841;SDS011;62184;52.006;5.924;2022-11-20T13:18:21;35.30;;;23.67;;
73841;SDS011;62184;52.006;5.924;2022-11-20T13:20:48;37.83;;;24.92;;
73841;SDS011;62184;52.006;5.924;2022-11-20T13:23:24;37.88;;;24.80;;
73841;SDS011;62184;52.006;5.924;2022-11-20T13:26:02;35.50;;;23.88;;
73841;SDS011;62184;52.006;5.924;2022-11-20T13:28:32;38.78;;;24.50;;
73841;SDS011;62184;52.006;5.924;2022-11-20T13:31:01;38.20;;;24.25;;
73841;SDS011;62184;52.006;5.924;2022-11-20T13:33:28;39.38;;;25.42;;
73841;SDS011;62184;52.006;5.924;2022-11-20T13:35:59;39.43;;;25.10;;
73841;SDS011;62184;52.006;5.924;2022-11-20T13:38:46;38.55;;;25.73;;
73841;SDS011;62184;52.006;5.924;2022-11-20T13:41:22;39.05;;;24.70;;
73841;SDS011;62184;52.006;5.924;2022-11-20T13:43:51;39.30;;;25.15;;
73841;SDS011;62184;52.006;5.924;2022-11-20T13:46:22;39.42;;;25.15;;
73841;SDS011;62184;52.006;5.924;2022-11-20T13:48:48;40.72;;;25.88;;
73841;SDS011;62184;52.006;5.924;2022-11-20T13:51:27;43.03;;;26.17;;
73841;SDS011;62184;52.006;5.924;2022-11-20T13:54:12;41.05;;;25.10;;
73841;SDS011;62184;52.006;5.924;2022-11-20T13:57:25;39.63;;;24.63;;
73841;SDS011;62184;52.006;5.924;2022-11-20T14:00:15;42.55;;;26.58;;
73841;SDS011;62184;52.006;5.924;2022-11-20T14:02:49;45.60;;;27.25;;
73841;SDS011;62184;52.006;5.924;2022-11-20T14:05:35;43.23;;;26.50;;
73841;SDS011;62184;52.006;5.924;2022-11-20T14:08:05;43.17;;;26.85;;
73841;SDS011;62184;52.006;5.924;2022-11-20T14:10:41;44.55;;;27.23;;
73841;SDS011;62184;52.006;5.924;2022-11-20T14:13:12;46.20;;;27.45;;
73841;SDS011;62184;52.006;5.924;2022-11-20T14:15:44;46.65;;;28.15;;
73841;SDS011;62184;52.006;5.924;2022-11-20T14:18:15;50.85;;;28.30;;
73841;SDS011;62184;52.006;5.924;2022-11-20T14:20:46;49.47;;;28.77;;
73841;SDS011;62184;52.006;5.924;2022-11-20T14:23:22;47.53;;;29.70;;
73841;SDS011;62184;52.006;5.924;2022-11-20T14:25:51;47.10;;;27.88;;
73841;SDS011;62184;52.006;5.924;2022-11-20T14:28:19;47.83;;;28.40;;
73841;SDS011;62184;52.006;5.924;2022-11-20T14:30:52;47.97;;;27.08;;
73841;SDS011;62184;52.006;5.924;2022-11-20T14:33:22;53.67;;;31.03;;
73841;SDS011;62184;52.006;5.924;2022-11-20T14:35:52;49.30;;;28.67;;
73841;SDS011;62184;52.006;5.924;2022-11-20T14:38:23;50.63;;;29.00;;
73841;SDS011;62184;52.006;5.924;2022-11-20T14:40:53;49.97;;;28.90;;
73841;SDS011;62184;52.006;5.924;2022-11-20T14:43:21;51.03;;;29.20;;
73841;SDS011;62184;52.006;5.924;2022-11-20T14:45:54;47.45;;;27.67;;
73841;SDS011;62184;52.006;5.924;2022-11-20T14:48:29;48.67;;;28.50;;